createdAt,value
2024-03-15T00:00:20.028Z,100923.84
2024-03-15T00:00:42.610Z,100924.55
2024-03-15T00:01:04.925Z,100924.23
2024-03-15T00:01:27.441Z,100925.52
2024-03-15T00:01:49.620Z,100927.48
2024-03-15T00:02:11.889Z,100926.33
2024-03-15T00:02:34.128Z,100927.29
2024-03-15T00:02:56.757Z,100927.89
2024-03-15T00:03:19.065Z,100923.92
2024-03-15T00:03:41.561Z,100923.67
2024-03-15T00:04:03.934Z,100924.98
2024-03-15T00:04:26.071Z,100921.51
2024-03-15T00:04:48.471Z,100924.14
2024-03-15T00:05:10.602Z,100924.30
2024-03-15T00:05:33.216Z,100926.70
2024-03-15T00:05:55.391Z,100924.55
2024-03-15T00:06:18.879Z,100927.63
2024-03-15T00:06:41.078Z,100926.46
2024-03-15T00:07:03.311Z,100927.90
2024-03-15T00:07:25.401Z,100926.50
2024-03-15T00:07:47.661Z,100927.81
2024-03-15T00:08:10.099Z,100926.88
2024-03-15T00:08:33.964Z,100926.83
2024-03-15T00:08:57.661Z,100927.00
2024-03-15T00:09:20.173Z,100927.86
2024-03-15T00:09:42.488Z,100924.90
2024-03-15T00:10:05.087Z,100926.58
2024-03-15T00:10:27.163Z,100928.36
2024-03-15T00:10:49.195Z,100924.08
2024-03-15T00:11:11.744Z,100928.02
2024-03-15T00:11:33.835Z,100929.17
2024-03-15T00:11:56.453Z,100923.33
2024-03-15T00:12:18.709Z,100925.88
2024-03-15T00:12:42.066Z,100920.69
2024-03-15T00:13:04.956Z,100923.59
2024-03-15T00:13:27.437Z,100925.94
2024-03-15T00:13:50.077Z,100925.48
2024-03-15T00:14:12.260Z,100923.63
2024-03-15T00:14:34.344Z,100924.73
2024-03-15T00:14:56.776Z,100925.33
2024-03-15T00:15:19.809Z,100924.20
2024-03-15T00:15:42.180Z,100924.27
2024-03-15T00:16:05.314Z,100922.54
2024-03-15T00:16:29.949Z,100925.74
2024-03-15T00:16:52.130Z,100925.60
2024-03-15T00:17:14.305Z,100925.19
2024-03-15T00:17:36.421Z,100924.60
2024-03-15T00:17:59.817Z,100927.60
2024-03-15T00:18:22.436Z,100927.01
2024-03-15T00:18:44.775Z,100927.39
2024-03-15T00:19:07.363Z,100927.29
2024-03-15T00:19:29.610Z,100921.20
2024-03-15T00:19:51.701Z,100927.48
2024-03-15T00:20:14.008Z,100928.42
2024-03-15T00:20:36.205Z,100930.65
2024-03-15T00:20:58.384Z,100931.77
2024-03-15T00:21:20.500Z,100935.21
2024-03-15T00:21:42.828Z,100931.70
2024-03-15T00:22:05.156Z,100928.21
2024-03-15T00:22:27.282Z,100931.75
2024-03-15T00:22:51.498Z,100933.52
2024-03-15T00:23:13.703Z,100927.96
2024-03-15T00:23:35.852Z,100932.23
2024-03-15T00:23:57.912Z,100933.49
2024-03-15T00:24:20.178Z,100933.02
2024-03-15T00:24:43.274Z,100933.05
2024-03-15T00:25:05.991Z,100932.59
2024-03-15T00:25:28.105Z,100935.08
2024-03-15T00:25:50.298Z,100935.30
2024-03-15T00:26:12.473Z,100933.08
2024-03-15T00:26:36.409Z,100931.38
2024-03-15T00:27:01.122Z,100933.35
2024-03-15T00:27:23.487Z,100932.35
2024-03-15T00:27:45.568Z,100937.17
2024-03-15T00:28:07.768Z,100938.84
2024-03-15T00:28:29.830Z,100933.60
2024-03-15T00:28:52.014Z,100933.80
2024-03-15T00:29:14.737Z,100936.38
2024-03-15T00:29:38.077Z,100938.43
2024-03-15T00:30:00.434Z,100934.86
2024-03-15T00:30:24.543Z,100933.69
2024-03-15T00:30:47.084Z,100933.96
2024-03-15T00:31:09.275Z,100936.33
2024-03-15T00:31:31.668Z,100936.05
2024-03-15T00:31:53.722Z,100936.81
2024-03-15T00:32:15.794Z,100934.84
2024-03-15T00:32:37.908Z,100935.45
2024-03-15T00:33:00.174Z,100934.91
2024-03-15T00:33:22.524Z,100932.45
2024-03-15T00:33:44.842Z,100929.45
2024-03-15T00:34:07.816Z,100932.23
2024-03-15T00:34:31.871Z,100935.45
2024-03-15T00:34:53.978Z,100933.05
2024-03-15T00:35:16.031Z,100929.07
2024-03-15T00:35:38.252Z,100933.29
2024-03-15T00:36:00.395Z,100931.48
2024-03-15T00:36:22.991Z,100932.76
2024-03-15T00:36:46.154Z,100934.35
2024-03-15T00:37:09.583Z,100930.61
2024-03-15T00:37:31.721Z,100931.17
2024-03-15T00:37:53.807Z,100933.66
2024-03-15T00:38:16.167Z,100930.80
2024-03-15T00:38:38.283Z,100931.35
2024-03-15T00:39:00.881Z,100931.57
2024-03-15T00:39:23.086Z,100932.33
2024-03-15T00:39:45.239Z,100933.28
2024-03-15T00:40:08.048Z,100932.32
2024-03-15T00:40:30.455Z,100931.07
2024-03-15T00:40:52.576Z,100932.45
2024-03-15T00:41:16.595Z,100934.83
2024-03-15T00:41:38.884Z,100932.31
2024-03-15T00:42:00.998Z,100931.17
2024-03-15T00:42:23.348Z,100930.43
2024-03-15T00:42:45.567Z,100931.77
2024-03-15T00:43:07.787Z,100933.24
2024-03-15T00:43:30.245Z,100929.88
2024-03-15T00:43:55.410Z,100931.39
2024-03-15T00:44:17.500Z,100930.48
2024-03-15T00:44:39.595Z,100929.19
2024-03-15T00:45:03.753Z,100931.34
2024-03-15T00:45:27.190Z,100929.45
2024-03-15T00:45:49.487Z,100925.98
2024-03-15T00:46:11.747Z,100930.26
2024-03-15T00:46:33.791Z,100928.16
2024-03-15T00:46:56.172Z,100931.95
2024-03-15T00:47:18.325Z,100929.06
2024-03-15T00:47:40.705Z,100930.56
2024-03-15T00:48:04.665Z,100930.46
2024-03-15T00:48:27.237Z,100932.80
2024-03-15T00:48:54.498Z,100931.15
2024-03-15T00:49:17.481Z,100930.50
2024-03-15T00:49:40.089Z,100928.48
2024-03-15T00:50:02.660Z,100930.11
2024-03-15T00:50:25.185Z,100933.47
2024-03-15T00:50:47.295Z,100931.95
2024-03-15T00:51:09.462Z,100931.98
2024-03-15T00:51:31.920Z,100933.08
2024-03-15T00:51:54.202Z,100932.27
2024-03-15T00:52:18.881Z,100932.14
2024-03-15T00:52:42.028Z,100933.04
2024-03-15T00:53:04.165Z,100933.75
2024-03-15T00:53:26.218Z,100933.55
2024-03-15T00:53:48.277Z,100932.62
2024-03-15T00:54:10.971Z,100932.93
2024-03-15T00:54:33.234Z,100935.27
2024-03-15T00:54:57.429Z,100934.10
2024-03-15T00:55:20.612Z,100932.46
2024-03-15T00:55:42.840Z,100931.95
2024-03-15T00:56:05.973Z,100930.41
2024-03-15T00:56:28.158Z,100929.06
2024-03-15T00:56:50.350Z,100929.14
2024-03-15T00:57:12.451Z,100929.64
2024-03-15T00:57:34.679Z,100929.23
2024-03-15T00:57:57.198Z,100929.27
2024-03-15T00:58:20.183Z,100928.20
2024-03-15T00:58:42.321Z,100926.68
2024-03-15T00:59:04.644Z,100927.95
2024-03-15T00:59:26.823Z,100926.63
2024-03-15T00:59:48.894Z,100924.34
2024-03-15T01:00:11.607Z,100926.48
2024-03-15T01:00:35.403Z,100927.27
2024-03-15T01:00:58.379Z,100930.35
2024-03-15T01:01:20.678Z,100927.81
2024-03-15T01:01:44.261Z,100927.35
2024-03-15T01:02:06.496Z,100929.14
2024-03-15T01:02:31.280Z,100932.55
2024-03-15T01:02:54.029Z,100930.52
2024-03-15T01:03:16.483Z,100927.77
2024-03-15T01:03:39.503Z,100930.58
2024-03-15T01:04:01.630Z,100929.61
2024-03-15T01:04:23.691Z,100933.84
2024-03-15T01:04:45.819Z,100925.84
2024-03-15T01:05:09.141Z,100927.12
2024-03-15T01:05:31.318Z,100927.84
2024-03-15T01:05:53.518Z,100927.30
2024-03-15T01:06:15.740Z,100925.16
2024-03-15T01:06:39.102Z,100925.27
2024-03-15T01:07:02.886Z,100926.23
2024-03-15T01:07:24.944Z,100925.08
2024-03-15T01:07:47.034Z,100927.22
2024-03-15T01:08:09.147Z,100925.70
2024-03-15T01:08:31.261Z,100924.75
2024-03-15T01:08:53.898Z,100925.67
2024-03-15T01:09:16.068Z,100928.23
2024-03-15T01:09:38.281Z,100924.56
2024-03-15T01:10:00.444Z,100923.46
2024-03-15T01:10:22.508Z,100927.27
2024-03-15T01:10:44.835Z,100924.32
2024-03-15T01:11:07.264Z,100926.05
2024-03-15T01:11:29.849Z,100924.14
2024-03-15T01:11:52.082Z,100925.02
2024-03-15T01:12:16.059Z,100922.80
2024-03-15T01:12:38.525Z,100924.73
2024-03-15T01:13:00.835Z,100922.88
2024-03-15T01:13:23.055Z,100922.64
2024-03-15T01:13:45.329Z,100924.09
2024-03-15T01:14:07.394Z,100925.00
2024-03-15T01:14:29.597Z,100925.98
2024-03-15T01:14:51.696Z,100926.02
2024-03-15T01:15:13.980Z,100922.94
2024-03-15T01:15:36.336Z,100923.13
2024-03-15T01:15:58.503Z,100922.83
2024-03-15T01:16:20.588Z,100923.40
2024-03-15T01:16:47.688Z,100922.41
2024-03-15T01:17:09.880Z,100926.49
2024-03-15T01:17:32.092Z,100923.75
2024-03-15T01:17:54.352Z,100925.73
2024-03-15T01:18:18.755Z,100924.36
2024-03-15T01:18:41.572Z,100926.14
2024-03-15T01:19:05.348Z,100923.63
2024-03-15T01:19:28.330Z,100921.45
2024-03-15T01:19:50.687Z,100922.24
2024-03-15T01:20:13.242Z,100918.47
2024-03-15T01:20:36.047Z,100920.83
2024-03-15T01:20:58.149Z,100922.67
2024-03-15T01:21:20.351Z,100920.62
2024-03-15T01:21:42.926Z,100919.52
2024-03-15T01:22:05.335Z,100918.91
2024-03-15T01:22:27.413Z,100917.27
2024-03-15T01:22:49.484Z,100917.05
2024-03-15T01:23:11.711Z,100919.69
2024-03-15T01:23:35.684Z,100916.38
2024-03-15T01:23:58.549Z,100916.05
2024-03-15T01:24:20.880Z,100919.96
2024-03-15T01:24:43.120Z,100917.77
2024-03-15T01:25:07.598Z,100915.50
2024-03-15T01:25:36.122Z,100917.52
2024-03-15T01:25:58.413Z,100917.08
2024-03-15T01:26:20.508Z,100917.50
2024-03-15T01:26:42.697Z,100916.70
2024-03-15T01:27:04.893Z,100918.89
2024-03-15T01:27:27.256Z,100919.35
2024-03-15T01:27:49.623Z,100919.78
2024-03-15T01:28:11.788Z,100919.33
2024-03-15T01:28:33.977Z,100922.55
2024-03-15T01:28:56.476Z,100923.30
2024-03-15T01:29:18.748Z,100922.71
2024-03-15T01:29:40.950Z,100922.73
2024-03-15T01:30:03.741Z,100925.04
2024-03-15T01:30:25.987Z,100923.98
2024-03-15T01:30:48.396Z,100923.27
2024-03-15T01:31:10.659Z,100922.63
2024-03-15T01:31:32.728Z,100923.46
2024-03-15T01:31:54.832Z,100919.50
2024-03-15T01:32:16.975Z,100923.77
2024-03-15T01:32:39.091Z,100918.58
2024-03-15T01:33:01.575Z,100920.40
2024-03-15T01:33:23.905Z,100920.49
2024-03-15T01:33:47.919Z,100921.25
2024-03-15T01:34:10.476Z,100918.21
2024-03-15T01:34:33.535Z,100919.38
2024-03-15T01:34:56.154Z,100919.70
2024-03-15T01:35:18.368Z,100920.40
2024-03-15T01:35:40.691Z,100918.85
2024-03-15T01:36:02.886Z,100919.73
2024-03-15T01:36:24.976Z,100919.05
2024-03-15T01:36:47.324Z,100920.02
2024-03-15T01:37:09.745Z,100916.90
2024-03-15T01:37:31.948Z,100921.67
2024-03-15T01:37:54.102Z,100920.85
2024-03-15T01:38:16.201Z,100919.19
2024-03-15T01:38:38.320Z,100921.34
2024-03-15T01:39:00.511Z,100918.25
2024-03-15T01:39:25.456Z,100921.98
2024-03-15T01:39:49.436Z,100919.39
2024-03-15T01:40:12.206Z,100918.80
2024-03-15T01:40:35.958Z,100919.71
2024-03-15T01:40:58.043Z,100916.46
2024-03-15T01:41:20.325Z,100921.23
2024-03-15T01:41:43.358Z,100919.14
2024-03-15T01:42:05.687Z,100916.74
2024-03-15T01:42:27.843Z,100918.02
2024-03-15T01:42:49.957Z,100915.30
2024-03-15T01:43:14.782Z,100918.48
2024-03-15T01:43:42.901Z,100916.91
2024-03-15T01:44:04.977Z,100913.02
2024-03-15T01:44:29.130Z,100918.88
2024-03-15T01:44:57.465Z,100916.89
2024-03-15T01:45:19.594Z,100911.36
2024-03-15T01:45:42.122Z,100912.13
2024-03-15T01:46:04.437Z,100911.52
2024-03-15T01:46:26.501Z,100912.67
2024-03-15T01:46:48.623Z,100915.92
2024-03-15T01:47:10.814Z,100913.77
2024-03-15T01:47:32.922Z,100912.87
2024-03-15T01:47:57.027Z,100913.21
2024-03-15T01:48:20.052Z,100911.80
2024-03-15T01:48:42.309Z,100914.64
2024-03-15T01:49:04.641Z,100915.55
2024-03-15T01:49:26.944Z,100913.15
2024-03-15T01:49:49.271Z,100916.71
2024-03-15T01:50:11.881Z,100914.84
2024-03-15T01:50:35.176Z,100914.58
2024-03-15T01:50:57.356Z,100916.02
2024-03-15T01:51:19.480Z,100916.36
2024-03-15T01:51:41.677Z,100914.88
2024-03-15T01:52:04.460Z,100913.48
2024-03-15T01:52:26.850Z,100918.08
2024-03-15T01:52:49.037Z,100914.64
2024-03-15T01:53:12.050Z,100915.73
2024-03-15T01:53:37.011Z,100916.08
2024-03-15T01:54:02.170Z,100916.00
2024-03-15T01:54:24.241Z,100913.53
2024-03-15T01:54:46.447Z,100916.19
2024-03-15T01:55:09.371Z,100916.92
2024-03-15T01:55:33.217Z,100915.20
2024-03-15T01:55:56.100Z,100916.09
2024-03-15T01:56:19.184Z,100914.36
2024-03-15T01:56:41.423Z,100915.20
2024-03-15T01:57:06.477Z,100916.91
2024-03-15T01:57:28.849Z,100918.23
2024-03-15T01:57:51.102Z,100913.58
2024-03-15T01:58:13.241Z,100916.32
2024-03-15T01:58:35.294Z,100913.58
2024-03-15T01:58:58.478Z,100914.02
2024-03-15T01:59:20.565Z,100915.15
2024-03-15T01:59:42.968Z,100914.88
2024-03-15T02:00:08.056Z,100914.47
2024-03-15T02:00:32.065Z,100913.20
2024-03-15T02:00:57.407Z,100911.09
2024-03-15T02:01:19.755Z,100915.63
2024-03-15T02:01:42.951Z,100915.52
2024-03-15T02:02:05.228Z,100912.20
2024-03-15T02:02:33.260Z,100911.60
2024-03-15T02:02:57.745Z,100911.33
2024-03-15T02:03:20.855Z,100911.60
2024-03-15T02:03:45.461Z,100910.09
2024-03-15T02:04:08.024Z,100909.45
2024-03-15T02:04:31.367Z,100908.45
2024-03-15T02:04:56.430Z,100909.58
2024-03-15T02:05:18.604Z,100906.01
2024-03-15T02:05:41.238Z,100906.24
2024-03-15T02:06:03.485Z,100908.58
2024-03-15T02:06:25.628Z,100908.82
2024-03-15T02:06:48.364Z,100905.73
2024-03-15T02:07:10.705Z,100909.34
2024-03-15T02:07:32.807Z,100911.66
2024-03-15T02:07:54.880Z,100905.98
2024-03-15T02:08:18.529Z,100906.00
2024-03-15T02:08:41.117Z,100906.10
2024-03-15T02:09:03.331Z,100911.58
2024-03-15T02:09:29.301Z,100906.20
2024-03-15T02:09:51.635Z,100909.79
2024-03-15T02:10:14.764Z,100912.22
2024-03-15T02:10:37.034Z,100911.26
2024-03-15T02:10:59.214Z,100910.17
2024-03-15T02:11:21.491Z,100913.04
2024-03-15T02:11:43.881Z,100911.24
2024-03-15T02:12:06.023Z,100913.95
2024-03-15T02:12:28.185Z,100911.23
2024-03-15T02:13:12.954Z,100911.84
2024-03-15T02:13:35.024Z,100913.03
2024-03-15T02:13:57.892Z,100912.73
2024-03-15T02:14:20.149Z,100910.67
2024-03-15T02:14:42.199Z,100914.88
2024-03-15T02:15:04.697Z,100913.91
2024-03-15T02:15:26.853Z,100915.02
2024-03-15T02:15:49.230Z,100914.02
2024-03-15T02:16:12.768Z,100914.80
2024-03-15T02:16:35.518Z,100913.76
2024-03-15T02:16:57.650Z,100913.20
2024-03-15T02:17:19.886Z,100913.41
2024-03-15T02:17:44.226Z,100914.38
2024-03-15T02:18:06.513Z,100910.73
2024-03-15T02:18:28.827Z,100909.89
2024-03-15T02:18:51.688Z,100914.02
2024-03-15T02:19:15.431Z,100910.20
2024-03-15T02:19:37.615Z,100910.90
2024-03-15T02:20:00.258Z,100913.23
2024-03-15T02:20:22.692Z,100915.55
2024-03-15T02:20:44.830Z,100913.86
2024-03-15T02:21:07.014Z,100913.85
2024-03-15T02:21:29.316Z,100912.98
2024-03-15T02:21:51.524Z,100913.83
2024-03-15T02:22:13.758Z,100912.19
2024-03-15T02:22:36.002Z,100913.02
2024-03-15T02:22:59.625Z,100913.77
2024-03-15T02:23:21.898Z,100912.42
2024-03-15T02:23:44.195Z,100914.56
2024-03-15T02:24:06.929Z,100914.10
2024-03-15T02:24:29.140Z,100914.16
2024-03-15T02:24:51.425Z,100917.55
2024-03-15T02:25:14.306Z,100915.21
2024-03-15T02:25:37.535Z,100917.90
2024-03-15T02:25:59.612Z,100911.94
2024-03-15T02:26:22.615Z,100917.52
2024-03-15T02:26:44.809Z,100917.70
2024-03-15T02:27:07.958Z,100915.04
2024-03-15T02:27:30.328Z,100914.20
2024-03-15T02:27:53.180Z,100913.02
2024-03-15T02:28:15.349Z,100909.21
2024-03-15T02:28:39.670Z,100913.27
2024-03-15T02:29:07.657Z,100915.73
2024-03-15T02:29:31.328Z,100915.06
2024-03-15T02:29:53.507Z,100916.85
2024-03-15T02:30:17.598Z,100918.17
2024-03-15T02:30:42.124Z,100918.19
2024-03-15T02:31:04.552Z,100918.05
2024-03-15T02:31:26.713Z,100920.92
2024-03-15T02:31:48.973Z,100920.80
2024-03-15T02:32:11.493Z,100920.48
2024-03-15T02:32:34.175Z,100919.98
2024-03-15T02:32:56.462Z,100921.85
2024-03-15T02:33:19.328Z,100922.44
2024-03-15T02:33:41.703Z,100921.81
2024-03-15T02:34:04.457Z,100921.50
2024-03-15T02:34:26.987Z,100923.51
2024-03-15T02:34:52.255Z,100922.69
2024-03-15T02:35:24.505Z,100923.62
2024-03-15T02:35:51.496Z,100923.64
2024-03-15T02:36:13.803Z,100923.33
2024-03-15T02:36:36.022Z,100921.76
2024-03-15T02:36:58.210Z,100922.44
2024-03-15T02:37:20.786Z,100923.92
2024-03-15T02:37:43.048Z,100923.02
2024-03-15T02:38:05.165Z,100922.39
2024-03-15T02:38:28.354Z,100924.73
2024-03-15T02:38:50.794Z,100924.08
2024-03-15T02:39:17.886Z,100920.29
2024-03-15T02:39:40.184Z,100922.27
2024-03-15T02:40:02.459Z,100923.07
2024-03-15T02:40:24.511Z,100919.55
2024-03-15T02:40:46.730Z,100922.77
2024-03-15T02:41:14.789Z,100924.83
2024-03-15T02:41:36.851Z,100925.66
2024-03-15T02:41:58.984Z,100923.16
2024-03-15T02:42:21.360Z,100923.34
2024-03-15T02:42:44.012Z,100925.10
2024-03-15T02:43:06.278Z,100923.22
2024-03-15T02:43:28.335Z,100926.43
2024-03-15T02:43:50.544Z,100922.25
2024-03-15T02:44:12.916Z,100924.42
2024-03-15T02:44:35.051Z,100925.66
2024-03-15T02:44:57.130Z,100926.80
2024-03-15T02:45:20.299Z,100926.87
2024-03-15T02:45:42.573Z,100930.92
2024-03-15T02:46:04.791Z,100927.16
2024-03-15T02:46:27.283Z,100926.16
2024-03-15T02:46:52.581Z,100927.66
2024-03-15T02:47:14.667Z,100925.94
2024-03-15T02:47:40.266Z,100926.02
2024-03-15T02:48:02.730Z,100924.70
2024-03-15T02:48:25.009Z,100927.58
2024-03-15T02:48:47.298Z,100927.82
2024-03-15T02:49:09.941Z,100928.74
2024-03-15T02:49:32.165Z,100926.56
2024-03-15T02:49:57.284Z,100931.67
2024-03-15T02:50:21.385Z,100927.34
2024-03-15T02:50:43.706Z,100928.46
2024-03-15T02:51:06.489Z,100926.41
2024-03-15T02:51:28.753Z,100925.74
2024-03-15T02:51:53.013Z,100929.67
2024-03-15T02:52:15.242Z,100931.14
2024-03-15T02:52:37.436Z,100928.86
2024-03-15T02:53:01.082Z,100932.85
2024-03-15T02:53:23.681Z,100929.50
2024-03-15T02:53:45.871Z,100928.71
2024-03-15T02:54:11.615Z,100930.59
2024-03-15T02:54:35.324Z,100931.73
2024-03-15T02:54:58.031Z,100931.62
2024-03-15T02:55:20.257Z,100927.92
2024-03-15T02:55:42.327Z,100933.48
2024-03-15T02:56:04.748Z,100929.16
2024-03-15T02:56:26.832Z,100927.35
2024-03-15T02:56:48.898Z,100929.73
2024-03-15T02:57:11.005Z,100929.38
2024-03-15T02:57:33.268Z,100930.88
2024-03-15T02:57:55.630Z,100927.75
2024-03-15T02:58:19.877Z,100928.48
2024-03-15T02:58:42.282Z,100927.46
2024-03-15T02:59:04.420Z,100930.48
2024-03-15T02:59:26.994Z,100931.04
2024-03-15T02:59:49.239Z,100927.77
2024-03-15T03:00:14.983Z,100928.13
2024-03-15T03:00:37.270Z,100928.39
2024-03-15T03:00:59.566Z,100930.34
2024-03-15T03:01:21.780Z,100932.53
2024-03-15T03:01:47.330Z,100934.09
2024-03-15T03:02:10.010Z,100933.98
2024-03-15T03:02:32.164Z,100934.06
2024-03-15T03:02:54.643Z,100933.38
2024-03-15T03:03:17.097Z,100931.14
2024-03-15T03:03:39.391Z,100930.99
2024-03-15T03:04:01.602Z,100933.78
2024-03-15T03:04:24.166Z,100932.61
2024-03-15T03:04:46.557Z,100933.14
2024-03-15T03:05:10.264Z,100932.32
2024-03-15T03:05:32.785Z,100932.38
2024-03-15T03:05:54.974Z,100929.59
2024-03-15T03:06:17.200Z,100933.08
2024-03-15T03:06:39.475Z,100933.89
2024-03-15T03:07:01.662Z,100932.96
2024-03-15T03:07:24.067Z,100933.45
2024-03-15T03:07:46.125Z,100934.96
2024-03-15T03:08:08.174Z,100933.11
2024-03-15T03:08:30.261Z,100932.30
2024-03-15T03:08:52.302Z,100934.19
2024-03-15T03:09:18.324Z,100929.38
2024-03-15T03:09:40.528Z,100928.79
2024-03-15T03:10:04.978Z,100930.20
2024-03-15T03:10:29.171Z,100931.58
2024-03-15T03:10:51.297Z,100930.15
2024-03-15T03:11:16.423Z,100931.08
2024-03-15T03:11:38.715Z,100928.15
2024-03-15T03:12:00.786Z,100935.02
2024-03-15T03:12:22.893Z,100936.98
2024-03-15T03:12:45.206Z,100934.61
2024-03-15T03:13:07.491Z,100932.77
2024-03-15T03:13:29.699Z,100934.23
2024-03-15T03:13:51.959Z,100938.33
2024-03-15T03:14:15.357Z,100936.68
2024-03-15T03:14:37.622Z,100934.70
2024-03-15T03:14:59.791Z,100939.69
2024-03-15T03:15:22.161Z,100936.09
2024-03-15T03:15:44.325Z,100936.84
2024-03-15T03:16:06.624Z,100938.46
2024-03-15T03:16:29.009Z,100934.52
2024-03-15T03:16:51.264Z,100937.61
2024-03-15T03:17:14.420Z,100936.60
2024-03-15T03:17:36.491Z,100936.17
2024-03-15T03:17:59.814Z,100937.08
2024-03-15T03:18:22.725Z,100937.98
2024-03-15T03:18:45.004Z,100937.81
2024-03-15T03:19:07.367Z,100937.46
2024-03-15T03:19:29.547Z,100940.59
2024-03-15T03:19:51.602Z,100936.48
2024-03-15T03:20:19.980Z,100938.90
2024-03-15T03:20:42.231Z,100940.36
2024-03-15T03:21:04.835Z,100938.05
2024-03-15T03:21:27.420Z,100936.92
2024-03-15T03:21:49.802Z,100938.95
2024-03-15T03:22:12.095Z,100934.86
2024-03-15T03:22:34.194Z,100935.35
2024-03-15T03:22:58.103Z,100935.11
2024-03-15T03:23:20.324Z,100934.08
2024-03-15T03:23:42.417Z,100935.46
2024-03-15T03:24:04.876Z,100939.13
2024-03-15T03:24:27.058Z,100940.44
2024-03-15T03:24:49.490Z,100937.30
2024-03-15T03:25:12.109Z,100939.79
2024-03-15T03:25:34.643Z,100938.75
2024-03-15T03:25:56.716Z,100937.44
2024-03-15T03:26:18.780Z,100938.70
2024-03-15T03:26:40.836Z,100936.33
2024-03-15T03:27:02.992Z,100937.08
2024-03-15T03:27:25.119Z,100936.28
2024-03-15T03:27:47.530Z,100937.91
2024-03-15T03:28:09.874Z,100939.06
2024-03-15T03:28:32.080Z,100937.22
2024-03-15T03:28:54.605Z,100938.18
2024-03-15T03:29:16.780Z,100937.39
2024-03-15T03:29:38.963Z,100938.00
2024-03-15T03:30:01.013Z,100936.52
2024-03-15T03:30:23.209Z,100937.11
2024-03-15T03:30:45.955Z,100935.80
2024-03-15T03:31:08.559Z,100934.45
2024-03-15T03:31:30.641Z,100939.23
2024-03-15T03:31:52.709Z,100940.06
2024-03-15T03:32:14.934Z,100936.58
2024-03-15T03:32:37.325Z,100936.55
2024-03-15T03:32:59.669Z,100937.70
2024-03-15T03:33:21.959Z,100940.48
2024-03-15T03:33:44.383Z,100938.31
2024-03-15T03:34:06.585Z,100939.46
2024-03-15T03:34:28.793Z,100937.19
2024-03-15T03:34:50.912Z,100941.31
2024-03-15T03:35:13.112Z,100939.20
2024-03-15T03:35:35.268Z,100940.75
2024-03-15T03:35:57.877Z,100942.02
2024-03-15T03:36:20.092Z,100938.86
2024-03-15T03:36:43.810Z,100938.56
2024-03-15T03:37:06.193Z,100939.84
2024-03-15T03:37:28.384Z,100940.42
2024-03-15T03:37:50.501Z,100939.24
2024-03-15T03:38:12.770Z,100938.78
2024-03-15T03:38:35.070Z,100938.30
2024-03-15T03:38:58.182Z,100939.82
2024-03-15T03:39:22.453Z,100938.45
2024-03-15T03:39:44.813Z,100942.01
2024-03-15T03:40:15.604Z,100941.71
2024-03-15T03:40:38.305Z,100945.10
2024-03-15T03:41:00.503Z,100947.20
2024-03-15T03:41:22.695Z,100946.06
2024-03-15T03:41:44.794Z,100944.51
2024-03-15T03:42:07.102Z,100945.41
2024-03-15T03:42:29.422Z,100946.30
2024-03-15T03:42:52.065Z,100949.52
2024-03-15T03:43:14.991Z,100944.98
2024-03-15T03:43:38.735Z,100945.71
2024-03-15T03:44:01.016Z,100945.70
2024-03-15T03:44:23.086Z,100949.15
2024-03-15T03:44:46.355Z,100949.25
2024-03-15T03:45:17.253Z,100949.74
2024-03-15T03:45:43.441Z,100948.06
2024-03-15T03:46:09.796Z,100946.44
2024-03-15T03:46:32.638Z,100944.98
2024-03-15T03:46:54.887Z,100946.48
2024-03-15T03:47:17.178Z,100946.10
2024-03-15T03:47:39.401Z,100947.95
2024-03-15T03:48:01.542Z,100950.39
2024-03-15T03:48:24.168Z,100951.10
2024-03-15T03:48:46.531Z,100949.34
2024-03-15T03:49:08.741Z,100948.66
2024-03-15T03:49:30.960Z,100950.09
2024-03-15T03:49:53.150Z,100953.96
2024-03-15T03:50:15.271Z,100952.23
2024-03-15T03:50:37.346Z,100953.69
2024-03-15T03:51:01.975Z,100952.36
2024-03-15T03:51:24.192Z,100953.15
2024-03-15T03:51:46.365Z,100955.81
2024-03-15T03:52:08.762Z,100957.16
2024-03-15T03:52:31.406Z,100955.64
2024-03-15T03:52:56.756Z,100956.94
2024-03-15T03:53:19.025Z,100957.73
2024-03-15T03:53:41.083Z,100959.41
2024-03-15T03:54:03.192Z,100958.82
2024-03-15T03:54:28.146Z,100959.11
2024-03-15T03:54:50.336Z,100956.20
2024-03-15T03:55:12.578Z,100958.59
2024-03-15T03:55:35.071Z,100956.92
2024-03-15T03:55:57.669Z,100959.29
2024-03-15T03:56:19.779Z,100957.24
2024-03-15T03:56:42.862Z,100958.99
2024-03-15T03:57:05.320Z,100959.16
2024-03-15T03:57:39.060Z,100955.65
2024-03-15T03:58:07.388Z,100958.71
2024-03-15T03:58:29.967Z,100960.05
2024-03-15T03:58:53.888Z,100960.17
2024-03-15T03:59:15.961Z,100958.00
2024-03-15T03:59:38.956Z,100958.45
2024-03-15T04:00:08.603Z,100957.16
2024-03-15T04:00:36.254Z,100956.39
2024-03-15T04:01:00.172Z,100957.73
2024-03-15T04:01:22.546Z,100955.84
2024-03-15T04:01:45.109Z,100956.39
2024-03-15T04:02:07.377Z,100956.05
2024-03-15T04:02:32.635Z,100956.29
2024-03-15T04:02:55.731Z,100954.95
2024-03-15T04:03:18.060Z,100953.96
2024-03-15T04:03:40.193Z,100954.18
2024-03-15T04:04:02.465Z,100955.60
2024-03-15T04:04:24.755Z,100953.77
2024-03-15T04:04:47.178Z,100956.29
2024-03-15T04:05:10.702Z,100953.56
2024-03-15T04:05:33.066Z,100950.50
2024-03-15T04:05:55.139Z,100952.81
2024-03-15T04:06:17.281Z,100952.02
2024-03-15T04:06:39.673Z,100951.91
2024-03-15T04:07:02.848Z,100955.52
2024-03-15T04:07:33.850Z,100951.02
2024-03-15T04:07:56.340Z,100952.36
2024-03-15T04:08:18.500Z,100953.65
2024-03-15T04:08:40.621Z,100956.55
2024-03-15T04:09:03.020Z,100958.70
2024-03-15T04:09:25.244Z,100953.00
2024-03-15T04:09:47.429Z,100956.02
2024-03-15T04:10:09.599Z,100956.79
2024-03-15T04:10:34.425Z,100952.47
2024-03-15T04:10:56.635Z,100952.37
2024-03-15T04:11:18.825Z,100953.44
2024-03-15T04:11:41.121Z,100953.78
2024-03-15T04:12:03.560Z,100952.35
2024-03-15T04:12:28.458Z,100953.20
2024-03-15T04:12:51.099Z,100952.56
2024-03-15T04:13:13.371Z,100953.73
2024-03-15T04:13:35.434Z,100955.92
2024-03-15T04:13:59.511Z,100956.87
2024-03-15T04:14:21.648Z,100955.04
2024-03-15T04:14:51.094Z,100955.79
2024-03-15T04:15:25.663Z,100954.94
2024-03-15T04:15:55.385Z,100953.79
2024-03-15T04:16:17.720Z,100955.30
2024-03-15T04:16:40.599Z,100955.14
2024-03-15T04:17:02.664Z,100956.68
2024-03-15T04:17:24.787Z,100953.58
2024-03-15T04:17:47.706Z,100954.66
2024-03-15T04:18:09.975Z,100955.23
2024-03-15T04:18:34.230Z,100957.73
2024-03-15T04:18:56.539Z,100957.27
2024-03-15T04:19:18.809Z,100956.12
2024-03-15T04:19:42.983Z,100957.58
2024-03-15T04:20:13.426Z,100957.61
2024-03-15T04:20:35.625Z,100956.29
2024-03-15T04:20:57.689Z,100959.29
2024-03-15T04:21:19.837Z,100958.15